Terminal Aerodrome Forecast
Issued by NWS

Home | Current Version | Previous Version | Graphics & Text | Print | Product List | Glossary On
Versions: 1 2 3 4 5 6 7 8 9 10 11 12 13 14 15 16 17 18 19 20
000
FTUS43 KIWX 251730
TAFSBN
TAF
KSBN 251730Z 2518/2618 33013KT P6SM OVC008
     FM252000 32013KT P6SM BKN015
     FM252200 32013KT P6SM BKN025
     FM260100 31008KT 3SM BR BKN010
     FM260900 29004KT 2SM BR BKN007
     FM261600 19005KT P6SM BKN045=

USA.gov is the U.S. government's official web portal to all federal, state and local government web resources and services.